Data for 07/31/2017

Time Sea-Level Adjusted Pressure Absolute Pressure Temperature Relative Humidity Dew Point   
(mb) (inHg) (mb) (inHg) (C) (F) (%) (C) (F)
00:05 1025 30.27 855 25.25 20.8 69.5 31 3.2 37.7
00:10 1026 30.3 855 25.25 20.9 69.6 30 3 37.3
00:15 1025 30.27 855 25.25 21 69.8 30 2.9 37.2
00:20 1026 30.3 855 25.25 21 69.8 31 3.6 38.4
00:25 1026 30.3 855 25.25 20.9 69.7 31 3.2 37.8
00:30 1026 30.3 855 25.25 20.5 68.9 32 3.2 37.8
00:35 1026 30.3 855 25.25 20.4 68.7 30 2.6 36.7
00:40 1026 30.3 855 25.25 20.7 69.3 30 2.9 37.2
00:45 1026 30.3 855 25.25 20.6 69.2 32 3.4 38.1
00:50 1026 30.3 855 25.25 20.3 68.5 31 2.9 37.2
00:55 1026 30.3 855 25.25 20.2 68.4 31 2.7 36.8
01:00 1026 30.3 855 25.25 20.6 69 30 2.5 36.5
01:05 1026 30.3 855 25.25 20.4 68.6 32 3.2 37.8
01:10 1026 30.3 855 25.25 19.9 67.7 33 3.4 38.1
01:15 1026 30.3 855 25.25 19.8 67.7 33 3.4 38
01:20 1026 30.3 855 25.25 19.9 67.8 31 2.6 36.6
01:25 1026 30.3 855 25.25 19.9 67.8 33 3.2 37.7
01:30 1026 30.3 855 25.25 19.8 67.6 32 2.7 36.8
01:35 1026 30.3 855 25.25 19.5 67.1 32 2.5 36.6
01:40 1026 30.3 855 25.25 19.4 67 33 2.8 37
01:45 1026 30.3 855 25.25 19.3 66.7 32 2.6 36.6
01:50 1026 30.3 855 25.25 19.3 66.7 33 2.7 36.9
01:55 1026 30.3 855 25.25 19.2 66.6 33 2.5 36.5
02:00 1026 30.3 855 25.25 19.2 66.5 33 2.5 36.5
02:05 1026 30.3 855 25.25 18.9 65.9 33 2.5 36.6
02:10 1026 30.3 855 25.25 18.7 65.6 34 2.5 36.5
02:15 1026 30.3 855 25.25 18.7 65.7 33 2.3 36.2
02:20 1026 30.3 855 25.25 18.9 65.9 32 2 35.6
02:25 1026 30.3 855 25.25 19 66.2 32 2 35.6
02:30 1026 30.3 855 25.25 19.1 66.3 31 1.7 35.1
02:35 1026 30.3 855 25.25 19.2 66.6 30 1.5 34.7
02:40 1026 30.3 855 25.25 19.3 66.7 30 1.5 34.8
02:45 1026 30.3 855 25.25 19.1 66.4 31 1.7 35.1
02:50 1026 30.3 855 25.25 18.9 66 31 1.6 34.8
02:55 1026 30.3 855 25.25 18.9 65.9 31 1.4 34.6
03:00 1026 30.3 855 25.25 18.9 66 30 1.1 33.9
03:05 1026 30.3 855 25.25 19.2 66.5 34 2.9 37.2
03:10 1026 30.3 855 25.25 19 66.3 32 2.3 36.1
03:15 1026 30.3 855 25.25 18.5 65.4 32 1.9 35.4
03:20 1026 30.3 855 25.25 18.4 65.2 33 2 35.6
03:25 1026 30.3 855 25.25 18.4 65.1 32 1.7 35
03:30 1026 30.3 855 25.25 18.5 65.3 32 1.5 34.6
03:35 1026 30.3 855 25.25 18.3 65 32 1.7 35.1
03:40 1026 30.3 856 25.28 18.3 64.9 32 1.6 34.9
03:45 1026 30.3 856 25.28 18.3 65 32 1.5 34.8
03:50 1026 30.3 856 25.28 18.5 65.3 32 1.7 35
03:55 1026 30.3 856 25.28 18.2 64.8 33 1.8 35.3
04:00 1026 30.3 856 25.28 18 64.5 33 1.8 35.2
04:05 1026 30.3 856 25.28 18.1 64.5 35 2.4 36.3
04:10 1026 30.3 856 25.28 17.6 63.6 39 3.7 38.7
04:15 1026 30.3 856 25.28 17.5 63.5 36 2.4 36.4
04:20 1026 30.3 856 25.28 17.5 63.5 37 2.7 36.9
04:25 1026 30.3 856 25.28 17.3 63.1 37 2.5 36.5
04:30 1026 30.3 856 25.28 17.1 62.8 39 3.1 37.5
04:35 1026 30.3 856 25.28 16.8 62.2 40 3.1 37.7
04:40 1027 30.33 856 25.28 16.5 61.8 41 3.3 37.9
04:45 1027 30.33 856 25.28 16.4 61.4 41 3.3 37.9
04:50 1027 30.33 856 25.28 16.1 60.9 42 3.4 38.1
04:55 1027 30.33 856 25.28 15.8 60.4 43 3.4 38.1
05:00 1027 30.33 856 25.28 15.7 60.3 44 3.5 38.3
05:05 1027 30.33 856 25.28 15.5 59.8 46 3.9 39
05:10 1027 30.33 856 25.28 15.3 59.6 44 3.2 37.7
05:15 1027 30.33 856 25.28 15.6 60 43 3 37.5
05:20 1027 30.33 856 25.28 15.5 59.9 44 3.3 38
05:25 1027 30.33 856 25.28 15.4 59.6 43 3.1 37.5
05:30 1027 30.33 856 25.28 15.3 59.5 44 3.2 37.8
05:35 1027 30.33 856 25.28 15 59 45 3.1 37.6
05:40 1027 30.33 856 25.28 15 58.9 43 2.7 36.8
05:45 1027 30.33 856 25.28 15.4 59.8 39 1.8 35.2
05:50 1027 30.33 856 25.28 16 60.8 39 2.3 36.1
05:55 1027 30.33 856 25.28 15.8 60.5 39 1.9 35.4
06:00 1027 30.33 856 25.28 15.8 60.4 40 2.3 36.2
06:05 1027 30.33 856 25.28 15.3 59.6 42 2.6 36.7
06:10 1027 30.33 856 25.28 15 59.1 42 2.2 36
06:15 1027 30.33 856 25.28 15.3 59.6 41 2.2 36
06:20 1027 30.33 856 25.28 15.1 59.1 42 2.3 36.1
06:25 1027 30.33 856 25.28 15.1 59.3 41 2.2 35.9
06:30 1027 30.33 856 25.28 15 59 44 2.9 37.2
06:35 1027 30.33 856 25.28 14.9 58.8 42 2.4 36.2
06:40 1027 30.33 856 25.28 15 59 43 2.7 36.8
06:45 1027 30.33 856 25.28 15.1 59.1 42 2.4 36.3
06:50 1027 30.33 856 25.28 15.1 59.2 42 2.3 36.2
06:55 1027 30.33 856 25.28 15.4 59.8 40 2 35.6
07:00 1027 30.33 856 25.28 15.9 60.6 39 2 35.5
07:05 1027 30.33 857 25.31 16.2 61.2 38 2 35.5
07:10 1027 30.33 857 25.31 16.3 61.3 39 2.4 36.4
07:15 1027 30.33 857 25.31 16.2 61.2 38 2.1 35.7
07:20 1027 30.33 857 25.31 16.6 61.9 38 2.5 36.4
07:25 1027 30.33 857 25.31 16.8 62.2 38 2.4 36.3
07:30 1028 30.36 857 25.31 16.9 62.4 37 2.1 35.8
07:35 1028 30.36 857 25.31 17.1 62.9 38 2.8 37.1
07:40 1028 30.36 857 25.31 16.9 62.4 38 2.7 36.9
07:45 1028 30.36 857 25.31 17.4 63.3 41 4.1 39.5
07:50 1028 30.36 857 25.31 18.1 64.6 36 3.1 37.6
07:55 1028 30.36 857 25.31 18.6 65.4 37 3.6 38.5
08:00 1028 30.36 857 25.31 18.6 65.5 33 2 35.6
08:05 1028 30.36 857 25.31 18.9 66 32 2.1 35.8
08:10 1028 30.36 857 25.31 19 66.1 39 4.9 40.8
08:15 1028 30.36 857 25.31 18.9 65.9 42 5.7 42.3
08:20 1028 30.36 857 25.31 19 66.1 41 5.4 41.8
08:25 1028 30.36 857 25.31 19.3 66.7 41 5.7 42.2
08:30 1028 30.36 857 25.31 19.7 67.5 39 5.6 42.1
08:35 1028 30.36 857 25.31 20.1 68.1 43 7.1 44.8
08:40 1028 30.36 857 25.31 20.4 68.7 32 3.4 38.1
08:45 1028 30.36 857 25.31 21.1 70 38 6.4 43.6
08:50 1028 30.36 857 25.31 21.3 70.3 40 7.2 45
08:55 1028 30.36 857 25.31 20.9 69.7 36 5.6 42
09:00 1028 30.36 857 25.31 21.2 70.1 36 5.6 42
09:05 1028 30.36 857 25.31 21.7 71 34 5.3 41.5
09:10 1028 30.36 857 25.31 22.1 71.8 35 6.1 43
09:15 1028 30.36 857 25.31 22 71.6 34 5.6 42.2
09:20 1028 30.36 857 25.31 22.1 71.8 33 5.1 41.2
09:25 1028 30.36 857 25.31 22.9 73.2 32 5.4 41.6
09:30 1028 30.36 857 25.31 23.2 73.8 33 6.3 43.3
09:35 1028 30.36 857 25.31 22.9 73.2 32 5.6 42.2
09:40 1028 30.36 857 25.31 23.6 74.5 30 5.4 41.7
09:45 1028 30.36 857 25.31 24 75.2 30 5.5 41.8
09:50 1028 30.36 857 25.31 23.9 74.9 31 5.9 42.5
09:55 1028 30.36 857 25.31 23.5 74.2 31 5.4 41.7
10:00 1028 30.36 857 25.31 23.4 74.2 30 5.1 41.1
10:05 1028 30.36 857 25.31 23.8 74.9 28 4.5 40.2
10:10 1028 30.36 857 25.31 24.5 76.1 27 4.6 40.3
10:15 1028 30.36 857 25.31 25.4 77.7 25 4.5 40
10:20 1028 30.36 857 25.31 25.7 78.2 23 3.6 38.4
10:25 1028 30.36 857 25.31 25.6 78.1 25 4.2 39.6
10:30 1028 30.36 857 25.31 25 76.9 26 4.3 39.7
10:35 1028 30.36 857 25.31 25.2 77.3 24 3.5 38.3
10:40 1028 30.36 857 25.31 25.5 77.9 24 3.9 39
10:45 1028 30.36 857 25.31 25.6 78 25 4.1 39.4
10:50 1028 30.36 857 25.31 26 78.8 26 5 41
10:55 1028 30.36 857 25.31 26.5 79.7 22 3.2 37.7
11:00 1028 30.36 857 25.31 26.4 79.5 22 3.3 38
11:05 1028 30.36 857 25.31 26.5 79.8 21 2.8 37.1
11:10 1028 30.36 857 25.31 26.6 79.8 21 3 37.4
11:15 1028 30.36 857 25.31 27.1 80.7 19 2.1 35.7
11:20 1028 30.36 857 25.31 26.9 80.4 21 2.8 37
11:25 1028 30.36 857 25.31 27 80.6 19 1.8 35.3
11:30 1028 30.36 857 25.31 27 80.5 20 2.7 36.9
11:35 1028 30.36 857 25.31 26.9 80.3 21 2.8 37
11:40 1027 30.33 857 25.31 27.8 82 20 2.8 37.1
11:45 1027 30.33 857 25.31 27.6 81.6 20 2.7 36.9
11:50 1027 30.33 857 25.31 28.1 82.5 20 3.5 38.2
11:55 1027 30.33 857 25.31 28.3 82.9 21 4.4 39.9
12:00 1027 30.33 856 25.28 28.8 83.8 20 3.8 38.8
12:05 1027 30.33 856 25.28 28.4 83.1 20 3.9 39.1
12:10 1027 30.33 856 25.28 28.5 83.2 20 3.7 38.7
12:15 1027 30.33 856 25.28 28 82.4 20 3.2 37.7
12:20 1027 30.33 856 25.28 28.1 82.6 18 1.9 35.4
12:25 1027 30.33 856 25.28 28.2 82.7 18 2.2 36
12:30 1027 30.33 856 25.28 28.7 83.7 18 2.2 36
12:35 1027 30.33 856 25.28 29.1 84.5 19 3.8 38.8
12:40 1027 30.33 856 25.28 29.5 85.1 19 3.5 38.3
12:45 1027 30.33 856 25.28 29.4 85 17 2.5 36.5
12:50 1027 30.33 856 25.28 29.1 84.3 17 1.7 35
12:55 1027 30.33 856 25.28 29.4 84.9 16 1.6 34.8
13:00 1027 30.33 856 25.28 29.8 85.6 17 2.4 36.4
13:05 1027 30.33 856 25.28 29.1 84.3 16 1.4 34.5
13:10 1027 30.33 856 25.28 29.5 85 14 -0 32
13:15 1027 30.33 856 25.28 29.6 85.3 15 0.7 33.3
13:20 1027 30.33 856 25.28 30.6 87 14 0.7 33.2
13:25 1027 30.33 856 25.28 30.7 87.3 15 1.3 34.4
13:30 1026 30.3 856 25.28 30.7 87.3 14 0.7 33.3
13:35 1026 30.3 856 25.28 30.3 86.5 15 1 33.9
13:40 1026 30.3 856 25.28 30.3 86.5 15 0.9 33.7
13:45 1026 30.3 855 25.25 30.8 87.4 14 0.8 33.4
13:50 1026 30.3 855 25.25 30.9 87.7 14 0.4 32.7
13:55 1026 30.3 855 25.25 30.8 87.4 14 0.4 32.7
14:00 1026 30.3 855 25.25 30.7 87.3 14 0.7 33.2
14:05 1026 30.3 855 25.25 31.3 88.3 13 0.4 32.7
14:10 1026 30.3 855 25.25 31.5 88.8 14 1 33.8
14:15 1026 30.3 855 25.25 32.2 90 13 0.9 33.7
14:20 1026 30.3 855 25.25 32.6 90.7 13 0.6 33.1
14:25 1026 30.3 855 25.25 32.3 90.2 13 1.3 34.4
14:30 1026 30.3 855 25.25 31.5 88.8 14 1.2 34.1
14:35 1026 30.3 855 25.25 31.7 89.1 12 -0.3 31.5
14:40 1026 30.3 855 25.25 31.7 89.1 12 -0.8 30.6
14:45 1026 30.3 855 25.25 31.3 88.3 13 -0.3 31.5
14:50 1026 30.3 855 25.25 31.9 89.4 12 -0.6 31
14:55 1026 30.3 855 25.25 31.9 89.4 11 -1.4 29.4
15:00 1026 30.3 855 25.25 32.1 89.8 11 -1.6 29
15:05 1025 30.27 855 25.25 32.3 90.1 11 -1.8 28.7
15:10 1025 30.27 855 25.25 32.4 90.2 11 -1 30.3
15:15 1025 30.27 855 25.25 32.4 90.4 12 -0.5 31.1
15:20 1025 30.27 854 25.22 32.3 90.2 12 -0.5 31.1
15:25 1025 30.27 854 25.22 32.6 90.6 12 -0.2 31.6
15:30 1025 30.27 854 25.22 32.2 90 13 0.8 33.4
15:35 1025 30.27 854 25.22 31.6 88.9 12 -0.3 31.4
15:40 1025 30.27 854 25.22 32.2 90 12 -0.3 31.5
15:45 1025 30.27 854 25.22 32 89.6 12 -0.9 30.4
15:50 1025 30.27 854 25.22 31.8 89.2 12 -0.7 30.8
15:55 1025 30.27 854 25.22 31.1 87.9 12 -1.3 29.7
16:00 1025 30.27 854 25.22 31.7 89.1 12 -0.8 30.5
16:05 1025 30.27 854 25.22 32.3 90.2 12 -0.6 30.9
16:10 1025 30.27 854 25.22 31.4 88.5 12 -0.9 30.4
16:15 1025 30.27 854 25.22 31 87.7 12 -1.3 29.6
16:20 1025 30.27 854 25.22 31.3 88.4 12 -1.4 29.4
16:25 1025 30.27 854 25.22 31.8 89.3 12 -0.6 30.9
16:30 1025 30.27 854 25.22 32.1 89.8 12 -0.2 31.7
16:35 1025 30.27 854 25.22 32.4 90.4 12 0 32
16:40 1025 30.27 854 25.22 32.4 90.2 12 -0.1 31.7
16:45 1025 30.27 854 25.22 32.5 90.4 11 -0.8 30.5
16:50 1025 30.27 854 25.22 32.3 90.1 12 -0.4 31.3
16:55 1025 30.27 854 25.22 31.9 89.4 12 -0.4 31.3
17:00 1024 30.24 854 25.22 32.2 89.9 13 0.1 32.3
17:05 1024 30.24 854 25.22 32.3 90.2 12 -0.2 31.6
17:10 1024 30.24 854 25.22 31.9 89.3 14 1 33.9
17:15 1024 30.24 854 25.22 31.8 89.3 12 -0.2 31.6
17:20 1024 30.24 854 25.22 32.2 89.9 12 0 32
17:25 1024 30.24 854 25.22 32.3 90.2 12 -0.1 31.9
17:30 1024 30.24 854 25.22 32 89.7 12 0 32
17:35 1024 30.24 854 25.22 31.9 89.4 13 -0 31.9
17:40 1024 30.24 853 25.19 31.6 88.8 13 0.1 32.2
17:45 1024 30.24 853 25.19 32 89.5 13 0.1 32.1
17:50 1024 30.24 853 25.19 32.2 89.9 13 0.6 33.1
17:55 1024 30.24 853 25.19 32.2 89.9 12 -0.4 31.3
18:00 1024 30.24 853 25.19 32 89.6 12 -0.4 31.2
18:05 1024 30.24 853 25.19 32.1 89.7 12 -0.2 31.6
18:10 1024 30.24 853 25.19 31.9 89.4 12 -0.7 30.8
18:15 1024 30.24 853 25.19 31.9 89.5 12 -0.2 31.6
18:20 1024 30.24 853 25.19 31.7 89.1 12 -0.4 31.2
18:25 1024 30.24 853 25.19 31.7 89 12 -0.5 31
18:30 1024 30.24 853 25.19 31.4 88.5 12 -1.2 29.8
18:35 1024 30.24 853 25.19 31.4 88.5 12 -0.5 31.1
18:40 1024 30.24 853 25.19 31.3 88.4 12 -1.6 29.1
18:45 1024 30.24 853 25.19 30.9 87.6 12 -1.5 29.3
18:50 1024 30.24 853 25.19 30.7 87.2 11 -2.4 27.7
18:55 1024 30.24 853 25.19 30.7 87.3 12 -1.9 28.6
19:00 1024 30.24 853 25.19 30.8 87.4 11 -2.3 27.8
19:05 1024 30.24 853 25.19 30.6 87.1 12 -1.6 29.1
19:10 1024 30.24 853 25.19 30.5 86.8 12 -1.8 28.8
19:15 1024 30.24 853 25.19 30.4 86.7 12 -1.8 28.8
19:20 1024 30.24 853 25.19 30.3 86.5 12 -1.8 28.8
19:25 1024 30.24 853 25.19 30.3 86.5 12 -1.6 29.2
19:30 1024 30.24 853 25.19 30.2 86.3 12 -1.8 28.8
19:35 1024 30.24 853 25.19 30 86.1 13 -1.5 29.4
19:40 1024 30.24 853 25.19 29.9 85.8 13 -1.4 29.5
19:45 1024 30.24 853 25.19 29.8 85.7 13 -1.1 29.9
19:50 1024 30.24 853 25.19 29.8 85.6 13 -1.3 29.6
19:55 1024 30.24 853 25.19 29.7 85.4 12 -2 28.4
20:00 1024 30.24 853 25.19 29.6 85.2 14 -0.1 31.7
20:05 1024 30.24 853 25.19 29.5 85 12 -2.3 27.9
20:10 1024 30.24 853 25.19 29.5 85 12 -2.5 27.4
20:15 1024 30.24 853 25.19 29.5 85.1 12 -2.9 26.8
20:20 1024 30.24 853 25.19 29.4 84.9 16 1.4 34.5
20:25 1024 30.24 853 25.19 28.6 83.5 21 4.6 40.4
20:30 1024 30.24 853 25.19 28 82.4 19 2.5 36.5
20:35 1024 30.24 853 25.19 27.6 81.7 21 3.5 38.2
20:40 1024 30.24 853 25.19 27.1 80.9 21 3.5 38.4
20:45 1024 30.24 853 25.19 26.8 80.2 28 7 44.5
20:50 1024 30.24 853 25.19 25.8 78.4 28 6 42.9
20:55 1024 30.24 853 25.19 25.1 77.2 30 6.3 43.4
21:00 1024 30.24 853 25.19 24.7 76.4 29 5.8 42.5
21:05 1024 30.24 853 25.19 24.4 75.9 29 5.3 41.6
21:10 1024 30.24 854 25.22 24.1 75.4 29 5 41
21:15 1024 30.24 854 25.22 23.9 74.9 28 4.3 39.7
21:20 1024 30.24 854 25.22 23.6 74.4 28 4.2 39.6
21:25 1025 30.27 854 25.22 22.7 72.9 30 4.6 40.3
21:30 1025 30.27 854 25.22 22.1 71.7 31 4.4 39.9
21:35 1025 30.27 854 25.22 22 71.6 30 3.6 38.6
21:40 1025 30.27 854 25.22 21.9 71.4 29 3 37.5
21:45 1025 30.27 854 25.22 22 71.6 26 1.9 35.4
21:50 1025 30.27 854 25.22 22.7 72.8 23 0.5 32.9
21:55 1025 30.27 854 25.22 23 73.3 22 0.1 32.2
22:00 1025 30.27 854 25.22 22.8 73 24 1.3 34.3
22:05 1025 30.27 855 25.25 22.1 71.8 25 1.4 34.5
22:10 1025 30.27 855 25.25 22 71.7 24 0.5 33
22:15 1025 30.27 855 25.25 22.5 72.5 23 0.6 33.2
22:20 1025 30.27 855 25.25 22.7 72.9 24 1.3 34.4
22:25 1025 30.27 855 25.25 22.8 73.1 24 1.2 34.1
22:30 1025 30.27 855 25.25 22.6 72.6 25 1.8 35.3
22:35 1025 30.27 855 25.25 22.4 72.2 24 0.8 33.5
22:40 1025 30.27 855 25.25 22.3 72.1 28 3.1 37.5
22:45 1025 30.27 855 25.25 21.4 70.5 28 2.4 36.4
22:50 1025 30.27 855 25.25 21.4 70.4 28 2.1 35.7
22:55 1025 30.27 855 25.25 21.1 70 30 2.9 37.1
23:00 1025 30.27 855 25.25 20.6 69.1 34 4.3 39.7
23:05 1025 30.27 855 25.25 20.6 69.1 28 1.9 35.3
23:10 1025 30.27 855 25.25 20.8 69.5 29 2.2 36
23:15 1025 30.27 855 25.25 21 69.8 27 1.7 35
23:20 1026 30.3 855 25.25 21.4 70.5 26 1.3 34.4
23:25 1026 30.3 855 25.25 21.8 71.2 24 0.2 32.4
23:30 1026 30.3 855 25.25 23 73.3 21 -0.2 31.7
23:35 1026 30.3 855 25.25 23.7 74.7 20 -0.5 31.2
23:40 1026 30.3 855 25.25 24 75.2 20 -0.1 31.8
23:45 1026 30.3 855 25.25 24.1 75.3 20 -0.1 31.8
23:50 1026 30.3 855 25.25 24.1 75.3 20 -0.1 31.9
23:55 1026 30.3 855 25.25 24.1 75.4 20 -0.1 31.9
24:00 1026 30.3 855 25.25 24 75.3 20 0.1 32.2